Time;durP1;ratioP1;P1;durP2;ratioP2;P2;SDS_P1;SDS_P2;PMS_P1;PMS_P2;Temp;Humidity;BMP_temperature;BMP_pressure;BME280_temperature;BME280_humidity;BME280_pressure;Samples;Min_cycle;Max_cycle;Signal;HPM_P1;HPM_P2
2023/06/07 00:01:06;;;;;;;2.53;2.43;;;25.00;57.60;;;;;;5036077;28;20469;-69
2023/06/07 00:03:37;;;;;;;3.40;2.60;;;25.10;57.50;;;;;;5032659;28;20467;-68
2023/06/07 00:06:09;;;;;;;3.10;2.83;;;25.10;57.40;;;;;;5025622;28;20505;-68
2023/06/07 00:08:39;;;;;;;2.67;2.50;;;25.20;57.30;;;;;;5031050;28;20883;-68
2023/06/07 00:11:07;;;;;;;3.00;2.40;;;25.20;57.10;;;;;;5033310;28;20423;-68
2023/06/07 00:13:39;;;;;;;2.30;2.20;;;25.20;57.20;;;;;;5033568;28;20934;-68
2023/06/07 00:16:07;;;;;;;3.20;3.00;;;25.30;57.10;;;;;;5044199;28;20456;-69
2023/06/07 00:18:36;;;;;;;2.43;2.27;;;25.30;57.00;;;;;;5048766;28;20476;-69
2023/06/07 00:21:04;;;;;;;2.67;2.40;;;25.30;56.60;;;;;;5013517;28;20443;-68
2023/06/07 00:23:33;;;;;;;2.40;2.20;;;25.30;56.30;;;;;;5029155;28;20466;-68
2023/06/07 00:26:01;;;;;;;3.23;3.03;;;25.30;56.80;;;;;;5033125;28;20462;-68
2023/06/07 00:28:29;;;;;;;2.80;2.60;;;25.30;57.00;;;;;;5033452;28;20480;-68
2023/06/07 00:30:59;;;;;;;2.80;2.70;;;25.20;56.50;;;;;;5032904;28;20512;-68
2023/06/07 00:33:27;;;;;;;2.30;2.20;;;25.10;57.10;;;;;;5032079;28;20489;-68
2023/06/07 00:35:56;;;;;;;2.77;2.57;;;25.10;57.10;;;;;;5032511;28;20455;-68
2023/06/07 00:38:24;;;;;;;2.67;2.47;;;25.10;57.30;;;;;;5046963;28;20444;-68
2023/06/07 00:40:53;;;;;;;2.80;2.60;;;25.00;57.30;;;;;;5049213;28;20429;-68
2023/06/07 00:43:22;;;;;;;2.70;2.50;;;25.00;56.40;;;;;;5046724;28;20467;-68
2023/06/07 00:45:50;;;;;;;3.50;3.30;;;24.90;56.50;;;;;;5036352;28;20450;-68
2023/06/07 00:48:20;;;;;;;2.67;2.57;;;24.50;56.60;;;;;;5032987;28;20455;-68
2023/06/07 00:50:50;;;;;;;4.00;3.70;;;23.90;58.00;;;;;;5032619;28;20536;-68
2023/06/07 00:53:18;;;;;;;2.63;2.43;;;23.70;59.80;;;;;;5032959;28;20510;-68
2023/06/07 00:55:47;;;;;;;3.27;2.90;;;23.80;59.90;;;;;;5032441;28;20428;-68
2023/06/07 00:58:16;;;;;;;3.17;2.70;;;24.00;59.40;;;;;;5033059;28;20483;-68
2023/06/07 01:00:44;;;;;;;3.17;2.90;;;24.00;58.10;;;;;;5035849;28;20475;-68
2023/06/07 01:03:14;;;;;;;3.13;2.93;;;23.90;58.90;;;;;;5031009;28;20444;-68
2023/06/07 01:05:44;;;;;;;2.87;2.77;;;23.70;58.50;;;;;;5038322;28;20451;-68
2023/06/07 01:08:13;;;;;;;2.60;2.50;;;23.60;59.30;;;;;;5050065;28;20446;-68
2023/06/07 01:10:42;;;;;;;3.07;2.73;;;23.60;59.80;;;;;;5033329;28;20471;-68
2023/06/07 01:13:12;;;;;;;2.30;2.20;;;23.70;59.90;;;;;;5035407;28;20831;-68
2023/06/07 01:15:41;;;;;;;2.53;2.33;;;23.70;59.60;;;;;;5032540;28;20458;-68
2023/06/07 01:18:10;;;;;;;2.90;2.30;;;23.80;59.90;;;;;;5032671;28;20440;-68
2023/06/07 01:20:41;;;;;;;3.03;2.83;;;24.00;59.50;;;;;;5031800;28;20527;-68
2023/06/07 01:23:14;;;;;;;3.07;2.87;;;24.10;58.90;;;;;;5032405;28;20531;-68
2023/06/07 01:25:44;;;;;;;4.20;2.47;;;24.10;58.40;;;;;;5030701;28;20456;-69
2023/06/07 01:28:14;;;;;;;2.80;2.60;;;24.00;58.40;;;;;;5030629;28;20499;-68
2023/06/07 01:30:42;;;;;;;2.77;2.57;;;24.00;59.20;;;;;;5030306;28;20475;-68
2023/06/07 01:33:12;;;;;;;2.50;2.40;;;24.00;58.90;;;;;;5029817;28;20869;-68
2023/06/07 01:36:00;;;;;;;2.23;2.13;;;24.20;58.90;;;;;;5088019;27;20549;-69
2023/06/07 01:38:30;;;;;;;2.60;2.40;;;24.30;58.70;;;;;;5089319;28;20454;-69
2023/06/07 01:40:58;;;;;;;2.93;2.73;;;24.40;57.90;;;;;;5088633;28;20444;-69
2023/06/07 01:43:27;;;;;;;2.77;2.57;;;24.30;57.40;;;;;;5084187;28;20932;-69
2023/06/07 01:45:56;;;;;;;2.93;2.73;;;24.10;57.80;;;;;;5086687;28;20458;-69
2023/06/07 01:48:26;;;;;;;3.43;3.23;;;24.00;58.10;;;;;;5086398;28;20488;-69
2023/06/07 01:50:54;;;;;;;2.90;2.70;;;23.80;59.10;;;;;;5088190;28;20445;-69
2023/06/07 01:53:24;;;;;;;2.13;2.03;;;23.80;59.30;;;;;;5089292;28;20429;-69
2023/06/07 01:55:59;;;;;;;2.43;2.33;;;23.80;59.20;;;;;;5088620;28;20465;-69
2023/06/07 01:58:34;;;;;;;2.63;2.43;;;23.90;59.00;;;;;;5087586;28;20452;-69
2023/06/07 02:01:16;;;;;;;3.33;3.13;;;23.90;58.40;;;;;;5086989;28;20456;-69
2023/06/07 02:03:51;;;;;;;2.40;2.20;;;23.80;59.10;;;;;;5081093;28;20471;-69
2023/06/07 02:06:30;;;;;;;2.30;2.20;;;23.80;59.10;;;;;;5086033;28;20457;-69
2023/06/07 02:09:04;;;;;;;3.00;2.80;;;23.90;59.00;;;;;;5081151;28;20465;-69
2023/06/07 02:11:33;;;;;;;2.77;2.57;;;24.00;58.90;;;;;;5086191;28;20540;-68
2023/06/07 02:14:02;;;;;;;2.90;2.70;;;24.00;58.80;;;;;;5086107;28;20838;-69
2023/06/07 02:16:35;;;;;;;4.77;2.63;;;24.00;57.80;;;;;;5087625;28;20543;-69
2023/06/07 02:19:06;;;;;;;3.20;3.00;;;24.00;58.00;;;;;;5086912;28;20507;-69
2023/06/07 02:21:45;;;;;;;2.90;2.70;;;23.80;58.50;;;;;;5086386;28;20496;-68
2023/06/07 02:24:16;;;;;;;2.97;2.67;;;23.80;58.60;;;;;;5088007;28;20502;-69
2023/06/07 02:26:44;;;;;;;2.73;2.57;;;23.70;58.00;;;;;;5086782;28;20449;-68
2023/06/07 02:29:13;;;;;;;3.23;2.93;;;23.60;58.20;;;;;;5085173;28;20544;-69
2023/06/07 02:31:42;;;;;;;2.70;2.60;;;23.60;58.80;;;;;;5087865;28;20935;-69
2023/06/07 02:34:10;;;;;;;2.57;2.30;;;23.60;59.00;;;;;;5075545;28;21310;-69
2023/06/07 02:36:40;;;;;;;2.30;2.20;;;23.70;59.20;;;;;;5081003;28;20522;-69
2023/06/07 02:39:09;;;;;;;2.97;2.77;;;23.80;58.60;;;;;;5074032;28;20446;-69
2023/06/07 02:41:38;;;;;;;2.57;2.47;;;23.80;58.40;;;;;;5082894;28;20514;-68
2023/06/07 02:44:06;;;;;;;3.30;3.00;;;23.80;58.50;;;;;;5085642;28;20454;-69
2023/06/07 02:46:35;;;;;;;2.77;2.60;;;23.70;59.00;;;;;;5078783;28;20434;-69
2023/06/07 02:49:03;;;;;;;2.60;2.50;;;23.80;59.00;;;;;;5072111;28;20544;-69
2023/06/07 02:51:37;;;;;;;2.60;2.50;;;23.80;58.50;;;;;;5064406;28;20453;-68
2023/06/07 02:54:09;;;;;;;3.17;2.87;;;23.70;58.40;;;;;;5072913;28;20466;-69
2023/06/07 02:56:40;;;;;;;2.23;2.13;;;23.70;58.90;;;;;;5072925;28;20483;-69
2023/06/07 02:59:09;;;;;;;3.27;2.97;;;23.70;59.10;;;;;;5070431;28;21453;-69
2023/06/07 03:01:41;;;;;;;2.80;2.60;;;23.80;58.90;;;;;;5072234;28;20443;-69
2023/06/07 03:04:09;;;;;;;2.93;2.70;;;23.80;58.30;;;;;;5069755;28;20544;-69
2023/06/07 03:06:41;;;;;;;3.33;3.13;;;23.80;58.00;;;;;;5064639;28;20458;-68
2023/06/07 03:09:18;;;;;;;3.97;2.87;;;23.70;57.80;;;;;;5066449;28;20529;-69
2023/06/07 03:11:48;;;;;;;3.10;2.80;;;23.50;58.50;;;;;;5073172;28;20933;-69
2023/06/07 03:14:19;;;;;;;3.37;3.07;;;23.40;58.80;;;;;;5055672;28;20471;-69
2023/06/07 03:16:48;;;;;;;3.10;2.90;;;23.30;59.10;;;;;;5072065;28;20831;-69
2023/06/07 03:19:17;;;;;;;3.37;3.07;;;23.30;59.30;;;;;;5070604;28;20540;-69
2023/06/07 03:21:45;;;;;;;3.83;3.17;;;23.40;59.20;;;;;;5068861;28;20454;-69
2023/06/07 03:24:16;;;;;;;2.67;2.57;;;23.40;59.00;;;;;;5071980;28;20453;-69
2023/06/07 03:26:45;;;;;;;3.63;3.43;;;23.30;59.00;;;;;;5072467;28;20452;-69
2023/06/07 03:29:16;;;;;;;3.00;2.80;;;23.20;58.90;;;;;;5071411;28;20466;-68
2023/06/07 03:31:44;;;;;;;2.90;2.80;;;23.10;59.60;;;;;;5072940;28;20522;-69
2023/06/07 03:34:16;;;;;;;3.43;3.17;;;23.10;59.80;;;;;;5060162;28;20552;-69
2023/06/07 03:36:46;;;;;;;2.93;2.73;;;23.20;60.00;;;;;;5052302;28;20876;-69
2023/06/07 03:39:16;;;;;;;3.03;2.83;;;23.30;59.60;;;;;;5063207;28;20465;-69
2023/06/07 03:41:45;;;;;;;2.80;2.60;;;23.40;59.60;;;;;;5071829;28;20894;-69
2023/06/07 03:44:19;;;;;;;3.03;2.83;;;23.50;59.40;;;;;;5071539;28;20458;-69
2023/06/07 03:46:47;;;;;;;3.53;3.20;;;23.60;59.00;;;;;;5071866;28;20462;-69
2023/06/07 03:49:16;;;;;;;3.30;3.00;;;23.70;58.80;;;;;;5071822;28;20451;-69
2023/06/07 03:51:44;;;;;;;3.27;2.97;;;23.80;58.60;;;;;;5072259;28;20455;-70
2023/06/07 03:54:14;;;;;;;2.63;2.53;;;23.80;58.10;;;;;;5071259;28;20480;-70
2023/06/07 03:56:44;;;;;;;4.40;3.27;;;23.80;58.20;;;;;;5072602;28;20535;-69
2023/06/07 03:59:13;;;;;;;4.07;3.67;;;23.60;57.90;;;;;;5070247;28;20466;-69
2023/06/07 04:01:44;;;;;;;3.00;2.80;;;23.50;58.10;;;;;;5070898;28;20462;-69
2023/06/07 04:04:12;;;;;;;3.53;3.30;;;23.50;58.30;;;;;;5059110;28;20496;-69
2023/06/07 04:06:41;;;;;;;3.70;3.40;;;23.30;58.30;;;;;;5064718;28;20461;-69
2023/06/07 04:09:09;;;;;;;3.73;2.80;;;23.10;59.20;;;;;;5071098;28;20511;-69
2023/06/07 04:11:38;;;;;;;3.40;3.13;;;23.00;59.40;;;;;;5071158;28;20553;-69
2023/06/07 04:14:06;;;;;;;2.87;2.77;;;23.00;59.60;;;;;;5070191;28;20491;-69
2023/06/07 04:16:36;;;;;;;4.17;3.87;;;22.90;59.40;;;;;;5066804;28;20499;-69
2023/06/07 04:19:06;;;;;;;2.80;2.70;;;22.90;59.50;;;;;;5066786;28;20853;-69
2023/06/07 04:21:36;;;;;;;4.20;3.50;;;22.80;59.80;;;;;;5069918;28;20468;-69
2023/06/07 04:24:06;;;;;;;3.27;3.07;;;22.90;60.10;;;;;;5065060;28;20489;-69
2023/06/07 04:26:35;;;;;;;3.27;3.03;;;23.00;59.80;;;;;;5067234;28;20458;-69
2023/06/07 04:29:05;;;;;;;3.13;2.93;;;23.00;59.80;;;;;;5069159;28;20867;-69
2023/06/07 04:31:39;;;;;;;3.20;3.00;;;23.10;60.00;;;;;;5068996;28;20559;-69
2023/06/07 04:34:13;;;;;;;3.63;3.33;;;23.20;59.20;;;;;;5057048;28;21190;-69
2023/06/07 04:36:41;;;;;;;3.43;3.13;;;23.30;58.80;;;;;;5067963;28;20486;-69
2023/06/07 04:39:15;;;;;;;3.60;3.30;;;23.30;58.80;;;;;;5070356;28;20469;-69
2023/06/07 04:41:46;;;;;;;3.20;3.00;;;23.30;59.30;;;;;;5065140;28;20552;-69
2023/06/07 04:44:28;;;;;;;3.33;3.13;;;23.40;58.80;;;;;;5069332;28;20520;-69
2023/06/07 04:47:02;;;;;;;4.57;3.80;;;23.30;58.60;;;;;;5062970;28;20879;-69
2023/06/07 04:49:40;;;;;;;3.30;3.10;;;23.20;58.80;;;;;;5068852;28;20461;-69
2023/06/07 04:52:12;;;;;;;5.07;4.67;;;23.10;59.50;;;;;;5067915;28;20811;-69
2023/06/07 04:54:46;;;;;;;3.70;3.50;;;23.10;59.30;;;;;;5067906;28;21034;-69
2023/06/07 04:57:16;;;;;;;5.97;5.57;;;22.90;59.40;;;;;;5068188;28;20487;-68
2023/06/07 04:59:48;;;;;;;6.93;6.33;;;22.80;59.50;;;;;;5070781;28;20533;-69
2023/06/07 05:02:21;;;;;;;6.07;5.53;;;22.20;60.80;;;;;;5065845;28;20552;-69
2023/06/07 05:04:53;;;;;;;5.90;5.50;;;21.40;62.70;;;;;;5059514;28;20492;-69
2023/06/07 05:07:21;;;;;;;6.37;5.97;;;20.90;64.30;;;;;;5071690;28;20455;-68
2023/06/07 05:09:53;;;;;;;6.47;5.80;;;20.40;65.60;;;;;;5061766;28;20460;-68
2023/06/07 05:12:24;;;;;;;4.30;4.00;;;20.20;66.50;;;;;;5069297;28;20460;-68
2023/06/07 05:14:53;;;;;;;7.17;5.57;;;20.60;66.50;;;;;;5087472;28;20478;-69
2023/06/07 05:17:21;;;;;;;4.93;4.43;;;21.10;65.00;;;;;;5061879;28;20474;-68
2023/06/07 05:19:54;;;;;;;4.93;4.30;;;21.40;64.30;;;;;;5065218;28;20460;-69
2023/06/07 05:22:23;;;;;;;4.20;3.90;;;21.50;63.90;;;;;;5067071;28;20586;-69
2023/06/07 05:24:52;;;;;;;4.03;3.70;;;21.80;63.30;;;;;;5070508;28;20470;-68
2023/06/07 05:27:21;;;;;;;4.13;3.30;;;22.10;62.70;;;;;;5056704;28;20488;-69
2023/06/07 05:29:50;;;;;;;3.60;3.30;;;22.30;62.00;;;;;;5064535;28;20462;-69
2023/06/07 05:32:18;;;;;;;3.43;3.23;;;22.50;61.70;;;;;;5059143;28;20469;-68
2023/06/07 05:34:48;;;;;;;4.07;3.73;;;22.70;61.30;;;;;;5067824;28;20492;-68
2023/06/07 05:37:19;;;;;;;4.60;4.17;;;22.80;61.10;;;;;;5056861;28;20495;-68
2023/06/07 05:39:48;;;;;;;4.20;3.70;;;22.90;60.90;;;;;;5084009;28;20887;-68
2023/06/07 05:42:16;;;;;;;4.63;4.23;;;23.10;60.50;;;;;;5061306;28;20976;-68
2023/06/07 05:44:46;;;;;;;5.30;3.90;;;23.20;60.20;;;;;;5060821;28;20792;-68
2023/06/07 05:47:15;;;;;;;4.30;4.00;;;23.10;60.40;;;;;;5063392;28;20882;-69
2023/06/07 05:49:44;;;;;;;4.07;3.63;;;23.10;60.60;;;;;;5065806;28;20500;-69
2023/06/07 05:52:13;;;;;;;5.67;5.27;;;23.20;60.50;;;;;;5069472;28;20706;-69
2023/06/07 05:54:50;;;;;;;6.67;6.07;;;23.30;60.60;;;;;;5059808;28;20552;-69
2023/06/07 05:57:18;;;;;;;5.00;4.70;;;23.30;60.60;;;;;;5058806;28;20492;-69
2023/06/07 05:59:46;;;;;;;3.27;3.07;;;23.20;60.90;;;;;;5051085;28;20596;-69
2023/06/07 06:02:16;;;;;;;4.33;3.90;;;23.20;61.00;;;;;;5059219;28;20507;-70
2023/06/07 06:04:44;;;;;;;4.80;3.60;;;23.40;60.50;;;;;;5059786;28;20450;-69
2023/06/07 06:07:13;;;;;;;4.77;4.20;;;23.50;60.40;;;;;;5061198;28;20863;-69
2023/06/07 06:09:42;;;;;;;4.07;3.77;;;23.60;60.20;;;;;;5064427;28;20449;-69
2023/06/07 06:12:12;;;;;;;3.40;3.20;;;23.70;60.10;;;;;;5060358;28;20507;-68
2023/06/07 06:14:40;;;;;;;4.00;3.70;;;23.90;59.80;;;;;;5061447;28;20511;-69
2023/06/07 06:17:08;;;;;;;4.13;3.70;;;24.10;59.70;;;;;;5064311;28;20855;-70
2023/06/07 06:19:36;;;;;;;4.90;3.67;;;24.20;59.30;;;;;;5056425;28;20459;-70
2023/06/07 06:22:05;;;;;;;4.20;3.90;;;24.30;59.30;;;;;;5064506;28;20459;-69
2023/06/07 06:24:33;;;;;;;3.80;3.50;;;24.50;59.10;;;;;;5072841;28;20510;-70
2023/06/07 06:27:03;;;;;;;4.40;4.10;;;24.60;59.00;;;;;;5072884;28;20465;-70
2023/06/07 06:29:31;;;;;;;4.13;3.83;;;24.70;58.60;;;;;;5072490;28;20449;-67
2023/06/07 06:32:01;;;;;;;3.90;3.70;;;24.80;58.40;;;;;;5067307;28;20475;-69
2023/06/07 06:34:29;;;;;;;4.00;3.70;;;24.80;58.60;;;;;;5070085;28;20572;-68
2023/06/07 06:36:59;;;;;;;3.70;3.50;;;24.90;58.60;;;;;;5065548;28;20474;-69
2023/06/07 06:39:28;;;;;;;4.50;4.10;;;25.00;58.50;;;;;;5070897;28;20458;-68
2023/06/07 06:41:56;;;;;;;4.60;4.20;;;25.00;58.40;;;;;;5071717;28;20466;-70
2023/06/07 06:44:42;;;;;;;3.90;3.60;;;25.10;58.50;;;;;;5070783;28;20466;-70
2023/06/07 06:47:10;;;;;;;4.60;4.23;;;25.10;58.10;;;;;;5059886;28;20949;-70
2023/06/07 06:49:39;;;;;;;3.97;3.67;;;25.10;58.00;;;;;;5073665;28;20512;-70
2023/06/07 06:52:08;;;;;;;4.03;3.73;;;25.20;57.80;;;;;;5072028;28;20487;-69
2023/06/07 06:54:36;;;;;;;4.10;3.80;;;25.30;57.60;;;;;;5073683;28;20462;-70
2023/06/07 06:57:05;;;;;;;5.47;3.60;;;25.30;58.20;;;;;;5072448;28;20511;-69
2023/06/07 06:59:33;;;;;;;3.60;3.40;;;25.30;57.50;;;;;;5072698;28;20493;-70
2023/06/07 07:02:03;;;;;;;4.00;3.77;;;25.30;57.30;;;;;;5056483;28;20865;-70
2023/06/07 07:04:31;;;;;;;3.40;3.20;;;25.40;57.30;;;;;;5068475;28;20969;-69
2023/06/07 07:07:00;;;;;;;5.40;4.27;;;25.40;57.70;;;;;;5059528;28;20486;-69
2023/06/07 07:09:30;;;;;;;4.27;3.97;;;25.40;57.30;;;;;;5068840;28;20968;-70
2023/06/07 07:11:58;;;;;;;3.23;3.03;;;25.40;56.90;;;;;;5061349;28;20458;-71
2023/06/07 07:14:26;;;;;;;3.87;3.67;;;25.40;56.90;;;;;;5062168;28;20486;-69
2023/06/07 07:16:55;;;;;;;3.97;3.60;;;25.50;56.90;;;;;;5069515;28;20513;-69
2023/06/07 07:19:25;;;;;;;3.50;3.30;;;25.50;56.80;;;;;;5063469;28;20518;-69
2023/06/07 07:21:53;;;;;;;3.30;3.10;;;25.50;56.70;;;;;;5069622;28;20465;-70
2023/06/07 07:24:21;;;;;;;3.40;3.20;;;25.50;56.60;;;;;;5067890;28;20900;-69
2023/06/07 07:26:50;;;;;;;4.03;3.73;;;25.50;56.60;;;;;;5072175;28;20459;-70
2023/06/07 07:29:18;;;;;;;3.87;3.57;;;25.60;56.90;;;;;;5069120;28;20540;-69
2023/06/07 07:31:46;;;;;;;4.13;3.83;;;25.60;56.60;;;;;;5071454;28;20951;-69
2023/06/07 07:34:14;;;;;;;4.27;3.97;;;25.60;56.60;;;;;;5068858;28;21225;-70
2023/06/07 07:36:44;;;;;;;4.03;3.73;;;25.60;56.60;;;;;;5070420;28;20484;-70
2023/06/07 07:39:12;;;;;;;4.17;3.87;;;25.60;56.80;;;;;;5061593;28;20466;-70
2023/06/07 07:41:41;;;;;;;4.17;3.97;;;25.60;56.70;;;;;;5069378;28;20547;-70
2023/06/07 07:44:09;;;;;;;3.80;3.50;;;25.60;56.60;;;;;;5063873;28;20537;-71
2023/06/07 07:46:37;;;;;;;4.33;4.03;;;25.60;56.60;;;;;;5064396;28;20458;-71
2023/06/07 07:49:05;;;;;;;4.07;3.80;;;25.60;57.00;;;;;;5065154;28;20457;-71
2023/06/07 07:51:34;;;;;;;5.10;4.80;;;25.60;56.80;;;;;;5064285;28;20457;-71
2023/06/07 07:54:04;;;;;;;4.00;3.70;;;25.60;57.20;;;;;;5061335;28;20472;-71
2023/06/07 07:56:32;;;;;;;4.17;3.83;;;25.70;56.70;;;;;;5069876;28;20518;-71
2023/06/07 07:59:00;;;;;;;4.20;3.90;;;25.70;56.70;;;;;;5070127;28;20477;-71
2023/06/07 08:01:28;;;;;;;5.53;3.80;;;25.70;56.70;;;;;;5062507;28;20451;-70
2023/06/07 08:03:56;;;;;;;4.23;3.93;;;25.70;56.90;;;;;;5070673;28;20857;-71
2023/06/07 08:06:25;;;;;;;3.70;3.50;;;25.70;57.40;;;;;;5067374;28;20457;-71
2023/06/07 08:08:53;;;;;;;3.50;3.30;;;25.60;56.90;;;;;;5066573;28;20478;-71
2023/06/07 08:11:25;;;;;;;3.87;3.40;;;25.60;57.00;;;;;;5060703;28;20510;-71
2023/06/07 08:13:53;;;;;;;5.20;3.70;;;25.70;57.00;;;;;;5067715;28;20497;-71
2023/06/07 08:16:21;;;;;;;4.67;3.53;;;25.70;56.90;;;;;;5062684;28;20453;-71
2023/06/07 08:18:55;;;;;;;5.30;4.90;;;25.60;57.10;;;;;;5065183;28;20715;-71
2023/06/07 08:21:24;;;;;;;18.43;15.10;;;25.60;57.40;;;;;;5067325;28;20448;-71
2023/06/07 08:23:55;;;;;;;19.67;15.37;;;25.60;57.20;;;;;;5069225;28;20542;-71
2023/06/07 08:26:24;;;;;;;17.07;12.20;;;25.60;57.20;;;;;;5070063;28;20457;-71
2023/06/07 08:28:53;;;;;;;22.20;16.70;;;25.70;57.00;;;;;;5069598;28;21173;-71
2023/06/07 08:31:22;;;;;;;23.13;18.20;;;25.70;57.20;;;;;;5077879;28;20465;-71
2023/06/07 08:33:50;;;;;;;18.93;16.43;;;25.70;57.20;;;;;;5079754;28;20491;-71
2023/06/07 08:36:19;;;;;;;17.53;14.47;;;25.70;57.20;;;;;;5073595;28;20458;-71
2023/06/07 08:38:47;;;;;;;21.17;14.13;;;25.70;57.20;;;;;;5075157;28;20465;-71
2023/06/07 08:41:16;;;;;;;12.83;11.50;;;25.70;57.40;;;;;;5071845;28;20484;-70
2023/06/07 08:43:49;;;;;;;15.00;10.83;;;25.50;57.80;;;;;;5074910;28;20453;-70
2023/06/07 08:46:18;;;;;;;24.53;16.10;;;25.50;57.90;;;;;;5053955;28;20465;-70
2023/06/07 08:48:49;;;;;;;13.27;11.03;;;25.50;57.80;;;;;;5071237;28;20475;-70
2023/06/07 08:51:19;;;;;;;14.10;12.60;;;25.50;57.70;;;;;;5069985;28;20464;-70
2023/06/07 08:53:54;;;;;;;16.27;12.30;;;25.60;57.90;;;;;;5072804;28;20867;-70
2023/06/07 08:56:25;;;;;;;15.60;11.63;;;25.60;57.50;;;;;;5067732;28;20481;-70
2023/06/07 08:58:56;;;;;;;8.07;7.03;;;25.60;57.70;;;;;;5065224;28;20976;-70
2023/06/07 09:01:25;;;;;;;15.00;11.50;;;25.60;57.00;;;;;;5062014;28;20490;-70
2023/06/07 09:03:57;;;;;;;15.47;11.30;;;25.60;57.40;;;;;;5066112;28;21024;-71
2023/06/07 09:06:26;;;;;;;14.40;10.60;;;25.60;57.60;;;;;;5074013;28;20497;-70
2023/06/07 09:08:55;;;;;;;12.57;9.93;;;25.60;57.80;;;;;;5074819;28;20466;-70
2023/06/07 09:11:23;;;;;;;12.93;11.70;;;25.60;57.80;;;;;;5065906;28;20471;-70
2023/06/07 09:13:55;;;;;;;9.10;8.10;;;25.60;57.70;;;;;;5078037;28;20461;-70
2023/06/07 09:16:25;;;;;;;9.10;8.20;;;25.70;57.60;;;;;;5064138;28;20456;-70
2023/06/07 09:18:56;;;;;;;8.50;7.60;;;25.60;57.50;;;;;;5048598;28;20569;-70
2023/06/07 09:21:26;;;;;;;8.20;7.20;;;25.60;57.30;;;;;;5054281;28;20450;-69
2023/06/07 09:23:58;;;;;;;6.43;5.63;;;25.60;56.90;;;;;;5057501;28;20964;-71
2023/06/07 09:26:37;;;;;;;5.80;5.40;;;25.50;57.30;;;;;;5070527;28;20528;-70
2023/06/07 09:29:07;;;;;;;4.60;4.20;;;25.50;57.20;;;;;;5056500;28;20453;-71
2023/06/07 09:31:39;;;;;;;5.73;4.90;;;25.40;57.40;;;;;;5056361;28;20546;-71
2023/06/07 09:34:21;;;;;;;5.30;4.20;;;25.40;57.30;;;;;;5074577;28;21003;-71
2023/06/07 09:36:51;;;;;;;3.93;3.53;;;25.50;57.10;;;;;;5061966;28;20457;-71
2023/06/07 09:39:22;;;;;;;4.50;4.10;;;25.50;57.10;;;;;;5069114;28;20469;-72
2023/06/07 09:41:51;;;;;;;4.07;3.67;;;25.50;56.90;;;;;;5071099;28;20449;-71
2023/06/07 09:44:25;;;;;;;4.10;3.80;;;25.50;57.00;;;;;;5069385;28;20458;-73
2023/06/07 09:46:55;;;;;;;3.70;3.40;;;25.50;56.70;;;;;;5064661;28;20470;-71
2023/06/07 09:49:27;;;;;;;3.77;3.47;;;25.50;56.80;;;;;;5067720;28;20798;-70
2023/06/07 09:51:55;;;;;;;3.73;3.43;;;25.50;56.80;;;;;;5068130;28;20473;-69
2023/06/07 09:54:38;;;;;;;3.47;3.17;;;25.50;56.80;;;;;;5062793;28;20507;-70
2023/06/07 09:57:10;;;;;;;3.73;3.53;;;25.60;56.70;;;;;;5064962;28;20460;-70
2023/06/07 09:59:57;;;;;;;3.20;3.00;;;25.60;56.00;;;;;;5063395;28;20820;-70
2023/06/07 10:02:28;;;;;;;4.37;4.07;;;25.60;55.90;;;;;;5064426;28;20484;-70
2023/06/07 10:04:57;;;;;;;3.97;3.57;;;25.70;55.40;;;;;;5063258;28;20484;-70
2023/06/07 10:07:34;;;;;;;8.43;3.93;;;25.70;55.60;;;;;;5062222;28;20468;-70
2023/06/07 10:10:05;;;;;;;4.03;3.73;;;25.70;56.20;;;;;;5064780;28;20458;-69
2023/06/07 10:12:40;;;;;;;3.60;3.33;;;25.70;56.10;;;;;;5064257;28;20456;-70
2023/06/07 10:15:10;;;;;;;4.03;3.73;;;25.70;52.80;;;;;;5063191;28;20507;-69
2023/06/07 10:17:50;;;;;;;3.60;3.30;;;25.60;55.70;;;;;;5063662;28;20465;-69
2023/06/07 10:20:27;;;;;;;4.30;3.90;;;25.70;56.10;;;;;;5066416;28;20477;-69
2023/06/07 10:23:02;;;;;;;4.50;3.47;;;25.70;56.30;;;;;;5066412;28;20465;-68
2023/06/07 10:25:32;;;;;;;3.83;3.53;;;25.70;53.80;;;;;;5060388;28;20453;-69
2023/06/07 10:28:13;;;;;;;3.70;3.40;;;25.70;55.90;;;;;;5055241;28;20466;-72
2023/06/07 10:30:47;;;;;;;4.50;3.47;;;25.70;56.10;;;;;;5048725;28;20460;-68
2023/06/07 10:33:20;;;;;;;3.40;3.13;;;25.80;56.30;;;;;;5065951;28;20492;-69
2023/06/07 10:35:51;;;;;;;3.33;3.13;;;25.90;56.20;;;;;;5061942;28;20579;-72
2023/06/07 10:38:20;;;;;;;3.87;3.63;;;25.90;56.10;;;;;;5059796;28;20457;-69
2023/06/07 10:40:50;;;;;;;3.90;3.70;;;25.90;54.20;;;;;;5056515;28;20462;-70
2023/06/07 10:43:20;;;;;;;3.70;3.50;;;25.90;56.00;;;;;;5058635;28;20961;-70
2023/06/07 10:45:48;;;;;;;4.20;3.90;;;25.90;56.00;;;;;;5060594;28;20541;-72
2023/06/07 10:48:37;;;;;;;4.20;3.90;;;25.90;53.00;;;;;;5063819;28;20465;-70
2023/06/07 10:51:06;;;;;;;3.97;3.77;;;25.80;53.40;;;;;;5057521;28;20836;-71
2023/06/07 10:53:51;;;;;;;3.93;3.70;;;25.80;54.10;;;;;;5056335;28;20458;-70
2023/06/07 10:56:33;;;;;;;4.50;4.10;;;25.80;54.60;;;;;;5061808;28;20472;-70
2023/06/07 10:59:20;;;;;;;3.90;3.60;;;25.90;55.70;;;;;;5051486;28;20493;-70
2023/06/07 11:01:50;;;;;;;5.80;4.10;;;25.90;55.50;;;;;;5064572;28;20533;-69
2023/06/07 11:04:54;;;;;;;4.00;3.80;;;25.90;54.50;;;;;;5059255;28;20950;-70
2023/06/07 11:07:26;;;;;;;4.40;3.73;;;26.00;53.80;;;;;;5051653;28;20465;-71
2023/06/07 11:10:33;;;;;;;4.47;4.17;;;26.00;55.30;;;;;;5060802;28;20467;-66
2023/06/07 11:13:03;;;;;;;3.27;3.00;;;26.10;55.10;;;;;;5062344;28;20519;-65
2023/06/07 11:15:35;;;;;;;3.67;3.40;;;26.10;55.30;;;;;;5062964;28;20965;-65
2023/06/07 11:18:08;;;;;;;3.93;3.63;;;26.10;55.30;;;;;;5054845;28;21360;-65
2023/06/07 11:20:51;;;;;;;4.20;3.80;;;26.10;55.30;;;;;;5064082;28;20512;-64
2023/06/07 11:23:29;;;;;;;4.47;4.00;;;26.20;55.40;;;;;;5067076;28;20458;-65
2023/06/07 11:26:01;;;;;;;5.10;4.30;;;26.20;54.90;;;;;;5059116;28;20447;-64
2023/06/07 11:28:32;;;;;;;4.17;3.87;;;26.30;54.00;;;;;;5072196;28;20478;-65
2023/06/07 11:31:02;;;;;;;4.10;3.87;;;26.30;53.10;;;;;;5063322;28;20940;-65
2023/06/07 11:33:33;;;;;;;4.13;3.73;;;26.20;52.90;;;;;;5070734;28;20480;-65
2023/06/07 11:36:04;;;;;;;3.70;3.50;;;26.20;52.90;;;;;;5068412;28;21058;-65
2023/06/07 11:38:33;;;;;;;3.80;3.60;;;26.20;53.80;;;;;;5060304;28;20448;-64
2023/06/07 11:41:03;;;;;;;3.90;3.60;;;26.20;53.70;;;;;;5065922;28;20475;-65
2023/06/07 11:43:32;;;;;;;6.70;4.33;;;26.30;53.70;;;;;;5062235;28;20473;-65
2023/06/07 11:46:01;;;;;;;4.57;4.17;;;26.20;53.60;;;;;;5057599;28;21026;-65
2023/06/07 11:48:30;;;;;;;4.10;3.80;;;26.30;53.80;;;;;;5056731;28;20464;-65
2023/06/07 11:51:00;;;;;;;4.90;4.50;;;26.30;53.50;;;;;;5055291;28;20513;-65
2023/06/07 11:53:31;;;;;;;4.07;3.77;;;26.40;53.70;;;;;;5055667;28;20507;-65
2023/06/07 11:56:00;;;;;;;4.07;3.67;;;26.40;54.20;;;;;;5062275;28;20511;-65
2023/06/07 11:58:28;;;;;;;4.03;3.77;;;26.40;54.10;;;;;;5054891;28;20469;-65
2023/06/07 12:00:57;;;;;;;4.93;4.60;;;26.40;53.10;;;;;;5063237;28;20478;-66
2023/06/07 12:03:26;;;;;;;3.63;3.40;;;26.50;54.00;;;;;;5052256;28;20459;-68
2023/06/07 12:05:56;;;;;;;4.50;4.13;;;26.60;54.00;;;;;;5057074;28;20972;-65
2023/06/07 12:08:31;;;;;;;4.63;4.20;;;26.60;53.90;;;;;;5054439;28;20819;-65
2023/06/07 12:11:00;;;;;;;4.33;3.93;;;26.70;54.20;;;;;;5059104;28;20448;-65
2023/06/07 12:13:31;;;;;;;6.10;3.97;;;26.80;54.10;;;;;;5060578;28;20445;-65
2023/06/07 12:15:59;;;;;;;4.13;3.83;;;27.00;53.10;;;;;;5050243;28;20455;-65
2023/06/07 12:18:29;;;;;;;4.10;3.80;;;27.20;53.00;;;;;;5054166;28;20464;-74
2023/06/07 12:21:04;;;;;;;4.30;4.00;;;27.30;52.50;;;;;;5052045;28;20565;-72
2023/06/07 12:23:36;;;;;;;3.87;3.67;;;27.50;52.80;;;;;;5069495;28;20448;-71
2023/06/07 12:26:08;;;;;;;4.43;4.13;;;27.60;52.80;;;;;;5069090;28;20952;-72
2023/06/07 12:28:38;;;;;;;4.47;4.17;;;27.60;52.70;;;;;;5066046;28;20465;-73
2023/06/07 12:31:16;;;;;;;5.63;3.60;;;27.70;52.70;;;;;;5060141;28;20464;-71
2023/06/07 12:33:54;;;;;;;4.87;4.47;;;27.70;52.70;;;;;;5060132;28;20895;-72
2023/06/07 12:36:22;;;;;;;4.20;3.80;;;27.70;52.40;;;;;;5064985;28;20581;-71
2023/06/07 12:38:52;;;;;;;5.03;4.53;;;27.50;52.80;;;;;;5059571;28;20800;-72
2023/06/07 12:41:23;;;;;;;4.13;3.83;;;27.50;53.10;;;;;;5061273;28;20953;-68
2023/06/07 12:43:54;;;;;;;4.03;3.83;;;27.40;53.20;;;;;;5068866;28;20466;-70
2023/06/07 12:46:22;;;;;;;4.87;4.40;;;27.40;53.20;;;;;;5060590;28;20459;-69
2023/06/07 12:48:50;;;;;;;4.40;4.00;;;27.50;53.20;;;;;;5057444;28;20494;-71
2023/06/07 12:51:18;;;;;;;4.40;4.10;;;27.50;53.10;;;;;;5058252;28;20925;-69
2023/06/07 12:53:47;;;;;;;4.23;3.93;;;27.50;53.10;;;;;;5058475;28;20516;-69
2023/06/07 12:56:16;;;;;;;4.30;4.00;;;27.50;53.10;;;;;;5072098;28;20971;-69
2023/06/07 12:58:45;;;;;;;4.40;4.00;;;27.50;53.00;;;;;;5066369;28;20448;-68
2023/06/07 13:01:13;;;;;;;4.03;3.33;;;27.50;53.10;;;;;;5059347;28;20497;-68
2023/06/07 13:03:41;;;;;;;4.07;3.87;;;27.50;52.70;;;;;;5063922;28;20555;-68